首页
METAR-TAF:

METAR-TAF

机场 :

Oshawa Executive Airport

奧沙華, 安大略省, 加拿大

纬度: 43-55-22N, 经度: 78-53-48W, 海拔: 140米

当前天气观测

该预报发布于15分钟前的08:00 UTC
风速6节,风向
温度 1°C
湿度 64%
气压 1023 hPa
能見度: 14.5公里
天空无云

METAR: CYOO 130800Z AUTO 17006KT 9SM CLR 01/M05 A3020 RMK SLP233

时间: 03:15 (08:15 UTC)

预报

该预报发布于37分钟前的07:38 UTC
预报有效从13日的 08点(UTC)到 13日的 20点(UTC)
风速8节,风向
能見度: 10公里
多云层高于18000英尺
从 13日的 1500点(UTC)
风速12节,风向
能見度: 10公里
少量云层高于2500英尺
多云层高于24000英尺

TAF: CYOO 130738Z 1308/1320 17008KT P6SM BKN180 FM131500 17012KT P6SM FEW025 BKN240 RMK FCST BASED ON AUTO OBS. NXT FCST BY 131400Z

超过4000个机场的气象观测和天气预报(METAR&TAF报告)。

可查询的气象台以黄色和红色小点在地图上表示。

将鼠标移到小点上方,可查看气象台名称。

然后点击查看天气观测和预报。

如需切换地图:点击带黑十字的绿色按钮放大地图;点击带横线的绿色按钮缩小地图;或者点击绿色箭头查看邻近地区的地图。


METAR-TAF: